Portada
METAR-TAF:

METAR-TAF

Aeroports :

Barkley Regional Airport

Paducah, Kentucky, Estats Units d'Amèrica

latitud: 37-03-23N, longitud: 088-46-26W, altitud: 125 m

Observació

L'informe es va fer fa 43 minuts, a les 09:53 UTC
Vent calma
Temperatura 13°C
Humitat 88%
Pressió 1020 hPa
Visibilitat: 16.1 km
Cel clar

METAR: KPAH 300953Z AUTO 00000KT 10SM CLR 13/11 A3013 RMK AO2 SLP200 T01280111

Hora: 05:36 (10:36 UTC)

Pronòstic

L'informe es va fer fa 5 hores i 16 minuts, a les 05:20 UTC
Pronòstic vàlid del 30 a les 06 UTC al 31 a les 06 UTC
Vent 4 kt amb direcció variable
Visibilitat: 10 km
Cel clar
A partir de les 30 a les 1300 UTC
Vent 6 kt del Nord
Visibilitat: 10 km
Cel clar

TAF: KPAH 300520Z 3006/3106 VRB04KT P6SM SKC FM301300 35006KT P6SM SKC

Observacions i pronòstics meteorològics de més de 4000 aeroports (METAR i TAF).

Les estacions disponibles són els punts grocs i vermells al mapa.

Posi el ratolí al punt desitjat per veure el nom de l'estació.

Feu clic per veure les observacions i els pronòstics meteorològics.

Per canviar el mapa: feu clic els botons verds amb una creu de color negre per apropar; al botó verd amb un guió per allunyar la imatge; o en les fletxes verdes per a mapes adjacents.


METAR-TAF: